hilfdirselbst.ch alexa rank chart, hilfdirselbst.ch alexa rank daily changes

hilfdirselbst.ch alexa rank chart, hilfdirselbst.ch alexa rank daily changes

hilfdirselbst.ch
Actual rank:
74 434

RANK HISTORY

Date Rank Diff
2018/06/21 74 434 -35 463
2018/06/20 109 897 -43 894
2018/06/19 153 791 -13 379
2018/06/18 167 170 -57 045
2018/06/17 224 215 +109 719
2018/06/16 114 496 -36 496
2018/06/15 150 992 +40 773
2018/06/14 110 219 -34 277
2018/06/13 144 496 -29 572
2018/06/12 174 068 +11 108
2018/06/11 162 960 +48 158
2018/06/10 114 802 +20 021
2018/06/09 94 781 -17 164
2018/06/08 111 945 +5 928
2018/06/07 106 017 +24 464
2018/06/06 81 553 -167 216
2018/06/05 248 769 +57 559
2018/06/04 191 210 +40 619
2018/06/03 150 591 -9 708
2018/06/02 160 299 +39 955
2018/06/01 120 344 +32 683
2018/05/31 87 661 -40 304
2018/05/30 127 965 -112 345
2018/05/29 240 310 +28 271
2018/05/28 212 039 -20 074
2018/05/27 232 113 +78 371
2018/05/26 153 742 +46 696
2018/05/25 107 046 +34 641
2018/05/24 72 405 -136 181
2018/05/23 208 586 -455 275
2018/05/22 663 861 +44 578
2018/05/21 619 283 +437 895
2018/05/20 181 388 -120 113
2018/05/19 301 501 +166 456
2018/05/18 135 045 +929
2018/05/17 134 116 +1 069
2018/05/16 133 047 -37 956
2018/05/15 171 003 -50 753
2018/05/14 221 756 +77 257
2018/05/13 144 499 -319 806
2018/05/12 464 305 +253 032
2018/05/11 211 273 +123 736
2018/05/10 87 537 -21 414
2018/05/09 108 951 -19 764
2018/05/08 128 715 -31 476
2018/05/07 160 191 +37 568
2018/05/06 122 623 +3 301
2018/05/05 119 322 -9 452
2018/05/04 128 774 -66 328
2018/05/03 195 102 -7 262
2018/05/02 202 364 -61 021
2018/05/01 263 385 -219 585
2018/04/30 482 970 +341 970
2018/04/29 141 000 +42 494
2018/04/28 98 506 -70 519
2018/04/27 169 025 +88 652
2018/04/26 80 373 +9 254
2018/04/25 71 119 -106 065
2018/04/24 177 184 +8 159
2018/04/23 169 025 +66 382
2018/04/22 102 643

WIDGET FOR YOUR SITE

DOMAINS WITH THE NEAREST RANK

Domain Rank
ts88g.com 74 429
wsscwater.com 74 430
snt.com.py 74 431
meritpages.com 74 432
modpagespeed.com 74 433
hilfdirselbst.ch 74 434
oo-software.com 74 435
todaypkmovieshd.com 74 436
ucm.ac.mz 74 437
erstecardclub.hr 74 438
likn.xyz 74 439

DOMAINS WITH THE NEAREST RANK BY TLD .ch

Domain Rank
meteocentrale.ch 72 757
nettoshop.ch 73 159
jobscout24.ch 73 305
casastone.ch 74 230
swissmilk.ch 74 399
hilfdirselbst.ch 74 434
beobachter.ch 74 909
songsear.ch 75 647
unisg.ch 75 771
xdate.ch 75 940
allgemeinbildung.ch 76 481